Time;durP1;ratioP1;P1;durP2;ratioP2;P2;SDS_P1;SDS_P2;PMS_P1;PMS_P2;Temp;Humidity;BMP_temperature;BMP_pressure;BME280_temperature;BME280_humidity;BME280_pressure;Samples;Min_cycle;Max_cycle;Signal;HPM_P1;HPM_P2
2021/09/05 00:00:00;;;;;;;5.35;4.45;;;17.50;57.30;;;;;;5055927;28;20017;-74
2021/09/05 00:02:26;;;;;;;7.93;4.75;;;17.40;57.20;;;;;;5056705;28;20066;-74
2021/09/05 00:04:52;;;;;;;9.57;4.45;;;17.40;57.20;;;;;;5054848;28;20095;-74
2021/09/05 00:07:17;;;;;;;6.10;4.28;;;17.30;57.30;;;;;;5055696;28;20060;-74
2021/09/05 00:09:43;;;;;;;5.93;4.30;;;17.30;57.50;;;;;;5056158;28;20025;-74
2021/09/05 00:12:10;;;;;;;5.22;3.35;;;17.30;57.90;;;;;;5056140;28;20032;-74
2021/09/05 00:14:37;;;;;;;11.40;5.40;;;17.30;57.70;;;;;;5038218;28;20029;-74
2021/09/05 00:17:03;;;;;;;7.93;4.60;;;17.30;58.10;;;;;;5055899;28;20021;-73
2021/09/05 00:19:29;;;;;;;10.63;4.97;;;17.20;58.20;;;;;;5055986;28;20100;-74
2021/09/05 00:21:55;;;;;;;7.00;4.40;;;17.20;58.50;;;;;;5055992;28;20411;-73
2021/09/05 00:24:21;;;;;;;7.82;4.00;;;17.20;58.40;;;;;;5055961;28;20032;-73
2021/09/05 00:26:47;;;;;;;4.88;3.83;;;17.20;58.20;;;;;;5055894;28;20351;-73
2021/09/05 00:29:15;;;;;;;5.88;4.03;;;17.10;58.00;;;;;;5055616;28;20099;-73
2021/09/05 00:31:41;;;;;;;5.88;3.80;;;17.10;58.20;;;;;;5055805;28;20234;-73
2021/09/05 00:34:07;;;;;;;5.50;3.92;;;17.10;58.00;;;;;;5055801;28;20097;-74
2021/09/05 00:36:32;;;;;;;6.10;4.30;;;17.10;58.10;;;;;;5055752;28;20025;-74
2021/09/05 00:38:58;;;;;;;6.25;4.32;;;17.10;58.20;;;;;;5055643;28;20056;-74
2021/09/05 00:41:24;;;;;;;6.47;4.45;;;17.00;58.20;;;;;;5054664;28;20021;-74
2021/09/05 00:44:04;;;;;;;5.57;4.03;;;17.00;58.20;;;;;;5055559;28;20025;-74
2021/09/05 00:46:31;;;;;;;4.90;3.90;;;17.00;58.50;;;;;;5055489;28;20024;-74
2021/09/05 00:48:58;;;;;;;6.63;3.83;;;17.00;58.20;;;;;;5037533;28;20033;-73
2021/09/05 00:51:31;;;;;;;4.88;3.80;;;16.90;58.20;;;;;;5055376;28;20029;-73
2021/09/05 00:54:03;;;;;;;4.50;3.53;;;16.90;58.40;;;;;;5055412;28;20025;-73
2021/09/05 00:56:32;;;;;;;5.75;4.03;;;16.90;58.50;;;;;;5055348;28;20074;-74
2021/09/05 00:59:02;;;;;;;14.20;4.43;;;16.80;58.40;;;;;;5055200;28;20070;-74
2021/09/05 01:01:28;;;;;;;6.43;4.25;;;16.80;58.70;;;;;;5037311;28;20053;-74
2021/09/05 01:03:54;;;;;;;6.75;4.40;;;16.80;58.70;;;;;;5037101;28;20466;-74
2021/09/05 01:06:20;;;;;;;5.68;4.05;;;16.80;58.80;;;;;;5054949;28;20028;-74
2021/09/05 01:08:48;;;;;;;4.68;3.38;;;16.70;58.70;;;;;;5054976;28;20029;-73
2021/09/05 01:11:17;;;;;;;5.35;3.92;;;16.70;58.80;;;;;;5036994;28;20036;-74
2021/09/05 01:13:43;;;;;;;5.50;4.32;;;16.70;59.00;;;;;;5054870;28;20489;-74
2021/09/05 01:16:30;;;;;;;5.50;3.90;;;16.70;59.00;;;;;;5054800;28;20021;-73
2021/09/05 01:19:12;;;;;;;5.75;4.07;;;16.60;59.20;;;;;;5054723;28;20028;-75
2021/09/05 01:21:38;;;;;;;5.80;3.92;;;16.60;59.20;;;;;;5054733;28;20017;-74
2021/09/05 01:24:06;;;;;;;5.38;4.05;;;16.60;59.20;;;;;;5054696;28;20044;-75
2021/09/05 01:26:34;;;;;;;6.05;4.13;;;16.50;59.10;;;;;;5054756;28;20029;-74
2021/09/05 01:29:01;;;;;;;8.23;4.00;;;16.50;59.20;;;;;;5054253;28;20033;-75
2021/09/05 01:31:40;;;;;;;7.05;4.07;;;16.50;59.30;;;;;;5054510;28;20029;-75
2021/09/05 01:34:09;;;;;;;8.88;4.30;;;16.50;59.50;;;;;;5054587;28;20056;-75
2021/09/05 01:36:37;;;;;;;7.15;5.00;;;16.50;59.40;;;;;;5036674;28;20504;-74
2021/09/05 01:39:04;;;;;;;12.15;4.30;;;16.40;59.60;;;;;;5054333;28;20029;-75
2021/09/05 01:41:31;;;;;;;6.05;4.20;;;16.40;59.50;;;;;;5054413;28;20017;-75
2021/09/05 01:44:01;;;;;;;5.28;4.18;;;16.40;59.70;;;;;;5054381;28;20032;-75
2021/09/05 01:46:27;;;;;;;8.45;4.60;;;16.40;59.70;;;;;;5050581;28;20385;-75
2021/09/05 01:48:53;;;;;;;8.07;4.57;;;16.30;59.70;;;;;;5052347;28;20108;-75
2021/09/05 01:51:18;;;;;;;8.27;4.65;;;16.30;59.80;;;;;;5053082;28;20036;-75
2021/09/05 01:53:44;;;;;;;6.90;4.60;;;16.40;59.80;;;;;;5053185;28;20385;-75
2021/09/05 01:56:10;;;;;;;5.28;3.97;;;16.30;59.80;;;;;;5054155;28;20025;-75
2021/09/05 01:58:36;;;;;;;8.23;4.57;;;16.30;59.80;;;;;;5054015;28;20021;-75
2021/09/05 02:01:02;;;;;;;5.95;4.45;;;16.30;60.10;;;;;;5054061;28;20386;-74
2021/09/05 02:03:27;;;;;;;7.18;4.65;;;16.20;60.00;;;;;;5054034;28;20032;-74
2021/09/05 02:05:53;;;;;;;6.07;4.40;;;16.20;60.10;;;;;;5053964;28;20075;-74
2021/09/05 02:08:19;;;;;;;10.10;3.92;;;16.20;60.20;;;;;;5053926;28;20389;-75
2021/09/05 02:10:45;;;;;;;6.88;4.78;;;16.20;60.10;;;;;;5053938;28;20036;-74
2021/09/05 02:13:11;;;;;;;6.10;4.57;;;16.20;60.30;;;;;;5053841;28;20114;-75
2021/09/05 02:15:36;;;;;;;6.68;4.20;;;16.20;60.30;;;;;;5053786;28;20036;-75
2021/09/05 02:18:02;;;;;;;7.20;4.78;;;16.10;60.30;;;;;;5053685;28;20474;-75
2021/09/05 02:20:28;;;;;;;5.57;4.18;;;16.10;60.40;;;;;;5053686;28;20382;-74
2021/09/05 02:22:54;;;;;;;7.45;4.65;;;16.10;60.40;;;;;;5053716;28;20096;-75
2021/09/05 02:25:20;;;;;;;7.93;5.43;;;16.10;60.60;;;;;;5053583;28;20035;-74
2021/09/05 02:27:46;;;;;;;7.07;4.75;;;16.10;60.50;;;;;;5053443;28;20096;-74
2021/09/05 02:30:13;;;;;;;10.63;5.30;;;16.00;60.50;;;;;;5053298;28;20128;-76
2021/09/05 02:32:39;;;;;;;7.68;5.18;;;16.00;60.80;;;;;;5035570;28;20028;-75
2021/09/05 02:35:06;;;;;;;9.05;4.65;;;16.10;61.10;;;;;;5053432;28;20025;-74
2021/09/05 02:37:33;;;;;;;12.75;4.88;;;16.00;61.00;;;;;;5053232;28;20513;-75
2021/09/05 02:39:59;;;;;;;7.55;4.93;;;16.00;61.10;;;;;;5053331;28;20031;-74
2021/09/05 02:42:24;;;;;;;10.05;4.95;;;16.00;61.10;;;;;;5053280;28;20031;-75
2021/09/05 02:44:50;;;;;;;11.07;5.15;;;15.90;61.00;;;;;;5053341;28;20533;-75
2021/09/05 02:47:16;;;;;;;7.53;4.35;;;16.00;61.30;;;;;;5053205;28;20378;-75
2021/09/05 02:49:42;;;;;;;6.43;4.80;;;15.90;61.10;;;;;;5053223;28;20025;-75
2021/09/05 02:52:10;;;;;;;11.30;4.82;;;15.90;61.20;;;;;;5053144;28;20029;-75
2021/09/05 02:54:38;;;;;;;6.97;4.80;;;15.90;61.30;;;;;;5035200;28;20104;-74
2021/09/05 02:57:05;;;;;;;7.57;5.35;;;15.90;61.50;;;;;;5035306;28;20431;-74
2021/09/05 02:59:31;;;;;;;6.18;4.45;;;15.90;61.40;;;;;;5053355;28;20482;-74
2021/09/05 03:01:59;;;;;;;7.03;4.93;;;15.80;61.50;;;;;;5053335;28;20043;-75
2021/09/05 03:04:25;;;;;;;5.72;4.40;;;15.80;61.50;;;;;;5052921;28;20028;-75
2021/09/05 03:06:51;;;;;;;8.10;4.60;;;15.80;61.60;;;;;;5053368;28;20033;-75
2021/09/05 03:09:16;;;;;;;5.93;4.40;;;15.80;61.70;;;;;;5054030;28;20028;-74
2021/09/05 03:11:42;;;;;;;9.90;5.25;;;15.70;61.60;;;;;;5035089;28;20482;-74
2021/09/05 03:14:08;;;;;;;6.35;4.60;;;15.70;61.60;;;;;;5052859;28;20036;-74
2021/09/05 03:16:34;;;;;;;7.35;4.47;;;15.70;61.60;;;;;;5052812;28;20112;-74
2021/09/05 03:19:00;;;;;;;8.45;5.05;;;15.70;61.70;;;;;;5052683;28;20113;-74
2021/09/05 03:21:26;;;;;;;8.80;5.65;;;15.70;62.10;;;;;;5052830;28;20028;-74
2021/09/05 03:23:52;;;;;;;19.58;5.93;;;15.70;62.20;;;;;;5052765;28;20021;-74
2021/09/05 03:26:17;;;;;;;10.35;5.50;;;15.70;62.20;;;;;;5052656;28;20025;-74
2021/09/05 03:28:43;;;;;;;7.50;4.85;;;15.70;62.30;;;;;;5034872;28;20040;-74
2021/09/05 03:31:09;;;;;;;8.45;4.82;;;15.70;62.20;;;;;;5052484;28;20053;-74
2021/09/05 03:33:35;;;;;;;9.30;5.03;;;15.60;62.20;;;;;;5052764;28;20032;-74
2021/09/05 03:36:01;;;;;;;8.15;4.93;;;15.60;62.30;;;;;;5052692;28;20025;-74
2021/09/05 03:38:27;;;;;;;6.05;4.45;;;15.60;62.40;;;;;;5052940;28;20029;-74
2021/09/05 03:40:52;;;;;;;6.78;4.72;;;15.60;62.40;;;;;;5052614;28;20032;-74
2021/09/05 03:43:18;;;;;;;7.72;4.65;;;15.60;62.50;;;;;;5052641;28;20028;-74
2021/09/05 03:45:44;;;;;;;7.18;5.03;;;15.60;62.50;;;;;;5050689;28;20074;-74
2021/09/05 03:48:10;;;;;;;9.93;5.57;;;15.60;62.60;;;;;;5050283;28;20025;-74
2021/09/05 03:50:35;;;;;;;7.25;5.30;;;15.50;62.70;;;;;;5051620;28;20029;-74
2021/09/05 03:53:01;;;;;;;7.85;4.53;;;15.50;62.70;;;;;;5051313;28;20106;-74
2021/09/05 03:55:27;;;;;;;7.55;5.00;;;15.50;62.70;;;;;;5052171;28;20021;-74
2021/09/05 03:57:53;;;;;;;8.52;4.93;;;15.50;62.70;;;;;;5052435;28;20029;-74
2021/09/05 04:00:19;;;;;;;8.52;4.97;;;15.50;62.90;;;;;;5052521;28;20025;-74
2021/09/05 04:02:44;;;;;;;7.28;5.22;;;15.50;63.20;;;;;;5052391;28;20044;-74
2021/09/05 04:05:11;;;;;;;9.10;5.82;;;15.50;63.10;;;;;;5052458;28;20275;-74
2021/09/05 04:07:41;;;;;;;11.02;5.93;;;15.50;63.20;;;;;;5034545;28;20024;-74
2021/09/05 04:10:11;;;;;;;7.60;5.40;;;15.50;63.20;;;;;;5052468;28;20424;-74
2021/09/05 04:12:42;;;;;;;8.98;5.07;;;15.50;63.30;;;;;;5052393;28;20025;-74
2021/09/05 04:15:10;;;;;;;7.07;5.03;;;15.40;63.40;;;;;;5052932;28;20021;-74
2021/09/05 04:17:37;;;;;;;7.40;5.22;;;15.40;63.30;;;;;;5056042;28;20111;-74
2021/09/05 04:20:04;;;;;;;7.82;5.03;;;15.40;63.20;;;;;;5056638;28;20435;-74
2021/09/05 04:22:32;;;;;;;12.70;5.25;;;15.40;63.30;;;;;;5056027;28;20100;-74
2021/09/05 04:24:58;;;;;;;13.43;6.15;;;15.40;63.40;;;;;;5055897;28;20329;-74
2021/09/05 04:27:24;;;;;;;7.30;4.75;;;15.40;63.70;;;;;;5055826;28;20021;-74
2021/09/05 04:29:50;;;;;;;10.25;5.88;;;15.40;63.50;;;;;;5055608;28;20168;-75
2021/09/05 04:32:17;;;;;;;9.70;5.75;;;15.40;63.70;;;;;;5055670;28;20025;-74
2021/09/05 04:34:43;;;;;;;7.18;4.57;;;15.40;63.70;;;;;;5037860;28;20047;-74
2021/09/05 04:37:09;;;;;;;7.95;5.47;;;15.30;63.60;;;;;;5055645;28;20108;-74
2021/09/05 04:39:35;;;;;;;7.78;5.75;;;15.30;64.70;;;;;;5055627;28;20029;-74
2021/09/05 04:42:01;;;;;;;8.38;5.40;;;15.30;63.90;;;;;;5055588;28;20065;-74
2021/09/05 04:44:26;;;;;;;9.38;5.68;;;15.30;64.10;;;;;;5055534;28;20021;-74
2021/09/05 04:46:52;;;;;;;8.10;5.53;;;15.30;64.40;;;;;;5055466;28;20434;-74
2021/09/05 04:49:18;;;;;;;7.22;5.53;;;15.30;64.60;;;;;;5055490;28;20025;-74
2021/09/05 04:51:44;;;;;;;9.90;5.88;;;15.30;64.40;;;;;;5055469;28;20032;-74
2021/09/05 04:54:09;;;;;;;7.78;5.78;;;15.40;65.50;;;;;;5055418;28;20044;-74
2021/09/05 04:56:35;;;;;;;7.00;5.18;;;15.40;65.50;;;;;;5055276;28;20025;-74
2021/09/05 04:59:01;;;;;;;9.70;5.85;;;15.40;64.50;;;;;;5055207;28;20033;-74
2021/09/05 05:01:27;;;;;;;7.13;5.05;;;15.40;64.40;;;;;;5055512;28;20375;-74
2021/09/05 05:03:52;;;;;;;7.07;4.70;;;15.50;64.50;;;;;;5055219;28;20485;-74
2021/09/05 05:06:18;;;;;;;7.50;5.40;;;15.50;64.60;;;;;;5055145;28;20024;-74
2021/09/05 05:08:44;;;;;;;8.15;5.35;;;15.50;64.50;;;;;;5055162;28;20029;-74
2021/09/05 05:11:16;;;;;;;9.25;4.93;;;15.50;64.60;;;;;;5055107;28;20028;-74
2021/09/05 05:13:43;;;;;;;9.13;5.63;;;15.60;64.80;;;;;;5055078;28;20028;-74
2021/09/05 05:16:09;;;;;;;6.40;4.68;;;15.60;64.80;;;;;;5055067;28;20079;-74
2021/09/05 05:18:35;;;;;;;8.85;5.25;;;15.60;64.80;;;;;;5054871;28;20541;-74
2021/09/05 05:21:01;;;;;;;15.52;6.57;;;15.70;64.90;;;;;;5054850;28;20090;-74
2021/09/05 05:23:28;;;;;;;8.23;5.40;;;15.80;65.00;;;;;;5054747;28;20071;-74
2021/09/05 05:25:54;;;;;;;8.20;5.18;;;15.80;64.90;;;;;;5054331;28;20041;-74
2021/09/05 05:28:19;;;;;;;8.75;5.95;;;15.80;64.80;;;;;;5054651;28;20522;-74
2021/09/05 05:30:45;;;;;;;7.18;4.95;;;15.90;64.90;;;;;;5036686;28;20048;-74
2021/09/05 05:33:11;;;;;;;9.90;6.43;;;16.00;64.90;;;;;;5054697;28;20032;-74
2021/09/05 05:35:37;;;;;;;7.55;5.25;;;16.00;64.90;;;;;;5054591;28;20025;-74
2021/09/05 05:38:02;;;;;;;9.05;5.68;;;16.10;64.80;;;;;;5036531;28;20151;-74
2021/09/05 05:40:32;;;;;;;8.68;5.80;;;16.20;64.70;;;;;;5054513;28;20025;-74
2021/09/05 05:43:02;;;;;;;8.88;6.25;;;16.20;64.60;;;;;;5054434;28;20017;-74
2021/09/05 05:45:28;;;;;;;8.48;6.03;;;16.30;64.40;;;;;;5036534;28;20070;-74
2021/09/05 05:47:55;;;;;;;7.90;5.75;;;16.40;65.10;;;;;;5050463;28;20078;-74
2021/09/05 05:50:21;;;;;;;12.70;6.53;;;16.40;64.30;;;;;;5053552;28;20056;-74
2021/09/05 05:52:47;;;;;;;11.52;5.95;;;16.50;64.50;;;;;;5035875;28;20029;-74
2021/09/05 05:55:13;;;;;;;7.50;5.65;;;16.60;64.50;;;;;;5035550;28;20029;-74
2021/09/05 05:57:39;;;;;;;8.25;5.45;;;16.70;64.50;;;;;;5054137;28;20036;-75
2021/09/05 06:00:06;;;;;;;8.30;5.28;;;16.70;64.40;;;;;;5054165;28;20382;-74
2021/09/05 06:02:32;;;;;;;9.43;6.15;;;16.80;64.30;;;;;;5054054;28;20036;-74
2021/09/05 06:04:58;;;;;;;7.18;5.35;;;16.90;64.30;;;;;;5054036;28;20037;-74
2021/09/05 06:07:27;;;;;;;10.40;6.85;;;16.90;64.10;;;;;;5053889;28;20021;-74
2021/09/05 06:09:53;;;;;;;8.35;6.43;;;17.00;63.90;;;;;;5053897;28;20028;-74
2021/09/05 06:12:19;;;;;;;8.38;6.00;;;17.10;63.60;;;;;;5035974;28;20029;-74
2021/09/05 06:14:46;;;;;;;9.68;6.43;;;17.20;63.50;;;;;;5053791;28;20419;-74
2021/09/05 06:17:12;;;;;;;7.95;5.93;;;17.20;63.20;;;;;;5053765;28;20474;-74
2021/09/05 06:19:38;;;;;;;10.10;6.47;;;17.30;63.10;;;;;;5035743;28;20063;-74
2021/09/05 06:22:04;;;;;;;14.95;7.20;;;17.40;63.10;;;;;;5053605;28;20359;-74
2021/09/05 06:24:30;;;;;;;12.27;7.05;;;17.50;63.00;;;;;;5053620;28;20021;-75
2021/09/05 06:26:56;;;;;;;10.90;7.35;;;17.50;62.80;;;;;;5053550;28;20419;-75
2021/09/05 06:29:22;;;;;;;10.85;7.47;;;17.60;62.40;;;;;;5053378;28;20044;-75
2021/09/05 06:31:48;;;;;;;8.65;6.45;;;17.70;62.10;;;;;;5053513;28;20096;-75
2021/09/05 06:34:14;;;;;;;9.40;6.57;;;17.70;61.90;;;;;;5053483;28;20482;-74
2021/09/05 06:36:40;;;;;;;8.77;6.18;;;17.80;61.80;;;;;;5035475;28;20032;-75
2021/09/05 06:39:05;;;;;;;9.55;6.68;;;17.90;61.70;;;;;;5052549;28;20017;-75
2021/09/05 06:41:31;;;;;;;12.40;6.45;;;18.00;61.50;;;;;;5053414;28;20390;-74
2021/09/05 06:43:58;;;;;;;8.80;5.93;;;18.10;61.40;;;;;;5035365;28;20477;-75
2021/09/05 06:46:24;;;;;;;10.38;6.60;;;18.10;62.10;;;;;;5053213;28;20021;-74
2021/09/05 06:48:50;;;;;;;11.88;7.47;;;18.20;61.40;;;;;;5053195;28;20028;-74
2021/09/05 06:51:17;;;;;;;8.73;6.47;;;18.30;61.50;;;;;;5053241;28;20067;-74
2021/09/05 06:53:43;;;;;;;10.52;7.25;;;18.40;61.40;;;;;;5053157;28;20505;-74
2021/09/05 06:56:09;;;;;;;10.02;7.20;;;18.40;60.90;;;;;;5053203;28;20033;-75
2021/09/05 06:58:35;;;;;;;10.50;7.57;;;18.50;60.70;;;;;;5053046;28;20028;-75
2021/09/05 07:01:02;;;;;;;10.40;7.45;;;18.60;60.50;;;;;;5053041;28;20028;-75
2021/09/05 07:03:28;;;;;;;12.18;6.97;;;18.70;60.10;;;;;;5053036;28;20025;-74
2021/09/05 07:05:53;;;;;;;11.68;8.30;;;18.70;60.00;;;;;;5052953;28;20025;-74
2021/09/05 07:08:20;;;;;;;13.40;8.52;;;18.80;59.80;;;;;;5035100;28;20063;-75
2021/09/05 07:10:46;;;;;;;11.20;7.97;;;18.90;59.40;;;;;;5053009;28;20053;-75
2021/09/05 07:13:11;;;;;;;14.73;8.85;;;18.90;59.30;;;;;;5052876;28;20513;-74
2021/09/05 07:15:37;;;;;;;13.90;9.18;;;18.90;59.10;;;;;;5053094;28;20108;-75
2021/09/05 07:18:03;;;;;;;14.77;8.98;;;19.10;59.10;;;;;;5052762;28;20025;-75
2021/09/05 07:20:30;;;;;;;16.10;8.55;;;19.10;59.00;;;;;;5052762;28;20431;-74
2021/09/05 07:22:56;;;;;;;15.68;9.25;;;19.20;58.90;;;;;;5052891;28;20096;-75
2021/09/05 07:25:23;;;;;;;12.32;8.15;;;19.30;58.90;;;;;;5052787;28;20025;-74
2021/09/05 07:27:49;;;;;;;14.05;9.15;;;19.40;58.80;;;;;;5052831;28;20522;-75
2021/09/05 07:30:16;;;;;;;19.60;8.82;;;19.40;58.70;;;;;;5051582;28;20041;-75
2021/09/05 07:32:42;;;;;;;13.40;9.10;;;19.60;58.50;;;;;;5056036;28;20036;-75
2021/09/05 07:35:08;;;;;;;14.25;8.65;;;19.60;58.30;;;;;;5051806;28;20025;-75
2021/09/05 07:37:35;;;;;;;15.40;9.95;;;19.70;58.20;;;;;;5034713;28;20029;-75
2021/09/05 07:40:01;;;;;;;25.27;10.13;;;19.80;57.80;;;;;;5052271;28;20032;-75
2021/09/05 07:42:27;;;;;;;18.40;9.68;;;19.80;57.30;;;;;;5052597;28;20032;-75
2021/09/05 07:44:53;;;;;;;14.45;7.82;;;19.90;57.00;;;;;;5052513;28;20021;-75
2021/09/05 07:47:19;;;;;;;14.63;8.73;;;20.00;56.70;;;;;;5032711;28;20024;-75
2021/09/05 07:49:45;;;;;;;12.45;8.20;;;20.10;56.00;;;;;;5051844;28;20099;-75
2021/09/05 07:52:11;;;;;;;19.88;9.07;;;20.20;56.10;;;;;;5055628;28;20156;-75
2021/09/05 07:54:36;;;;;;;14.75;8.68;;;20.20;55.90;;;;;;5037417;28;20024;-75
2021/09/05 07:57:02;;;;;;;15.32;9.05;;;20.30;55.70;;;;;;5055773;28;20423;-75
2021/09/05 07:59:28;;;;;;;14.63;8.65;;;20.50;55.80;;;;;;5056042;28;20035;-75
2021/09/05 08:01:54;;;;;;;13.10;8.93;;;20.60;55.50;;;;;;5055870;28;20378;-75
2021/09/05 08:04:20;;;;;;;12.13;7.53;;;20.60;55.40;;;;;;5038392;28;20025;-75
2021/09/05 08:06:46;;;;;;;13.48;7.70;;;20.70;55.40;;;;;;5056066;28;20079;-75
2021/09/05 08:09:11;;;;;;;13.63;8.25;;;20.80;55.80;;;;;;5051908;28;20043;-75
2021/09/05 08:11:37;;;;;;;14.00;8.43;;;20.90;55.00;;;;;;5055803;28;20029;-75
2021/09/05 08:14:03;;;;;;;12.63;8.35;;;21.00;54.50;;;;;;5063535;28;20031;-75
2021/09/05 08:16:29;;;;;;;12.90;8.15;;;21.10;54.40;;;;;;5062381;28;20029;-75
2021/09/05 08:18:55;;;;;;;11.63;7.45;;;21.10;54.20;;;;;;5054688;28;20044;-75
2021/09/05 08:21:20;;;;;;;16.20;8.85;;;21.20;53.90;;;;;;5055439;28;20024;-75
2021/09/05 08:23:46;;;;;;;14.43;8.95;;;21.30;53.30;;;;;;5055813;28;20036;-75
2021/09/05 08:26:12;;;;;;;14.30;8.75;;;21.40;53.30;;;;;;5037839;28;20025;-75
2021/09/05 08:28:40;;;;;;;17.60;9.65;;;21.40;53.30;;;;;;5055869;28;20071;-75
2021/09/05 08:31:07;;;;;;;14.88;8.48;;;21.50;52.80;;;;;;5055605;28;20106;-75
2021/09/05 08:33:32;;;;;;;14.43;7.97;;;21.50;52.60;;;;;;5055687;28;20025;-74
2021/09/05 08:35:58;;;;;;;13.50;7.72;;;21.60;52.80;;;;;;5055668;28;20070;-75
2021/09/05 08:38:24;;;;;;;14.55;8.48;;;21.70;53.00;;;;;;5055985;28;20021;-75
2021/09/05 08:40:51;;;;;;;14.30;9.18;;;21.70;52.50;;;;;;5055621;28;20036;-75
2021/09/05 08:43:18;;;;;;;12.35;7.80;;;21.80;52.30;;;;;;5037668;28;20021;-74
2021/09/05 08:45:48;;;;;;;16.20;8.90;;;21.90;52.40;;;;;;5055526;28;20028;-75
2021/09/05 08:48:17;;;;;;;15.10;9.35;;;21.90;52.30;;;;;;5055448;28;20017;-75
2021/09/05 08:50:45;;;;;;;14.38;9.68;;;22.00;52.20;;;;;;5055421;28;20033;-75
2021/09/05 08:53:11;;;;;;;12.40;8.30;;;22.10;51.60;;;;;;5055266;28;20032;-75
2021/09/05 08:55:37;;;;;;;13.95;9.77;;;22.10;51.80;;;;;;5055304;28;20033;-75
2021/09/05 08:58:04;;;;;;;13.82;9.57;;;22.20;51.90;;;;;;5037808;28;20378;-75
2021/09/05 09:00:30;;;;;;;17.17;9.18;;;22.20;51.80;;;;;;5036883;28;20109;-74
2021/09/05 09:02:57;;;;;;;12.40;7.80;;;22.30;51.80;;;;;;5036884;28;20120;-75
2021/09/05 09:05:53;;;;;;;14.05;7.43;;;22.40;51.90;;;;;;5055145;28;20025;-74
2021/09/05 09:08:21;;;;;;;13.50;9.45;;;22.40;52.20;;;;;;5038474;28;20036;-75
2021/09/05 09:10:53;;;;;;;13.05;9.43;;;22.50;51.40;;;;;;5054976;28;20017;-75
2021/09/05 09:13:39;;;;;;;13.52;9.70;;;22.50;51.10;;;;;;5054854;28;20386;-75
2021/09/05 09:16:07;;;;;;;16.20;11.23;;;22.60;50.90;;;;;;5054822;28;20036;-75
2021/09/05 09:18:34;;;;;;;17.20;11.85;;;22.70;50.10;;;;;;5054679;28;20056;-74
2021/09/05 09:21:01;;;;;;;15.85;10.45;;;22.70;50.30;;;;;;5036853;28;20025;-75
2021/09/05 09:23:32;;;;;;;16.80;10.05;;;22.80;50.40;;;;;;5054728;28;20087;-75
2021/09/05 09:26:05;;;;;;;18.85;10.10;;;22.80;50.40;;;;;;5054712;28;20025;-75
2021/09/05 09:28:37;;;;;;;16.80;11.05;;;22.90;50.60;;;;;;5054626;28;20025;-75
2021/09/05 09:31:25;;;;;;;15.25;10.38;;;23.00;50.20;;;;;;5033243;28;20051;-74
2021/09/05 09:33:55;;;;;;;17.27;10.93;;;23.00;50.60;;;;;;5034642;28;20079;-75
2021/09/05 09:36:26;;;;;;;21.15;10.45;;;23.10;49.90;;;;;;5034737;28;20108;-74
2021/09/05 09:38:53;;;;;;;13.70;10.15;;;23.10;49.70;;;;;;5034460;28;20057;-75
2021/09/05 09:41:20;;;;;;;12.60;9.57;;;23.20;49.40;;;;;;5034416;28;20049;-75
2021/09/05 09:43:49;;;;;;;16.10;9.32;;;23.20;49.80;;;;;;5033215;28;20076;-75
2021/09/05 09:46:17;;;;;;;14.30;10.50;;;23.30;49.90;;;;;;5034376;28;20096;-75
2021/09/05 09:48:45;;;;;;;15.00;9.07;;;23.40;49.10;;;;;;5030270;28;20148;-75
2021/09/05 09:51:12;;;;;;;15.23;10.25;;;23.40;49.50;;;;;;5033012;28;20031;-75
2021/09/05 09:53:42;;;;;;;13.50;9.55;;;23.50;49.30;;;;;;5034129;28;20026;-75
2021/09/05 09:56:09;;;;;;;13.88;9.35;;;23.60;49.30;;;;;;5031842;28;20083;-75
2021/09/05 09:58:36;;;;;;;18.23;9.82;;;23.70;49.90;;;;;;5034059;28;20036;-75
2021/09/05 10:01:03;;;;;;;13.60;9.13;;;23.70;48.90;;;;;;5033085;28;20379;-75
2021/09/05 10:03:30;;;;;;;15.70;9.05;;;23.80;49.20;;;;;;5033967;28;20467;-74
2021/09/05 10:05:59;;;;;;;11.40;8.45;;;23.90;48.90;;;;;;5034108;28;20026;-74
2021/09/05 10:08:26;;;;;;;14.05;9.90;;;23.90;48.20;;;;;;5032825;28;20155;-75
2021/09/05 10:10:57;;;;;;;13.02;8.57;;;24.00;47.70;;;;;;5033929;28;20026;-74
2021/09/05 10:13:31;;;;;;;10.30;7.85;;;24.00;47.50;;;;;;5033959;28;20108;-74
2021/09/05 10:15:58;;;;;;;10.48;7.43;;;24.10;47.70;;;;;;5033763;28;20022;-74
2021/09/05 10:18:24;;;;;;;10.68;7.55;;;24.10;47.30;;;;;;5033778;28;20092;-74
2021/09/05 10:20:50;;;;;;;11.73;7.50;;;24.10;47.40;;;;;;5032407;28;20104;-75
2021/09/05 10:23:31;;;;;;;9.48;6.43;;;24.20;47.90;;;;;;5033761;28;20022;-75
2021/09/05 10:26:07;;;;;;;10.00;7.07;;;24.30;47.90;;;;;;5033756;28;20025;-74
2021/09/05 10:28:45;;;;;;;14.45;7.43;;;24.40;47.40;;;;;;5033962;28;20419;-74
2021/09/05 10:31:12;;;;;;;7.72;6.10;;;24.50;46.80;;;;;;5051927;28;20045;-74
2021/09/05 10:33:45;;;;;;;12.40;6.70;;;24.50;46.90;;;;;;5053462;28;20499;-74
2021/09/05 10:36:12;;;;;;;14.73;7.55;;;24.60;46.90;;;;;;5053479;28;20025;-74
2021/09/05 10:38:45;;;;;;;13.75;8.45;;;24.70;46.50;;;;;;5053582;28;20075;-74
2021/09/05 10:41:20;;;;;;;12.10;7.97;;;24.80;46.20;;;;;;5053580;28;20103;-74
2021/09/05 10:43:54;;;;;;;10.85;7.40;;;24.80;45.30;;;;;;5053460;28;20276;-74
2021/09/05 10:46:25;;;;;;;11.80;7.85;;;24.90;45.30;;;;;;5053579;28;20055;-75
2021/09/05 10:48:54;;;;;;;14.73;6.97;;;24.90;44.40;;;;;;5036399;28;20454;-74
2021/09/05 10:51:25;;;;;;;12.68;6.75;;;25.00;43.50;;;;;;5053181;28;20028;-75
2021/09/05 10:53:58;;;;;;;11.32;8.18;;;25.00;44.00;;;;;;5035227;28;20440;-74
2021/09/05 10:56:34;;;;;;;12.25;7.05;;;25.10;43.30;;;;;;5053488;28;20025;-74
2021/09/05 10:59:05;;;;;;;8.30;6.35;;;25.20;44.10;;;;;;5035200;28;20025;-74
2021/09/05 11:01:37;;;;;;;9.95;6.43;;;25.20;43.60;;;;;;5053023;28;20024;-74
2021/09/05 11:06:41;;;;;;;10.60;6.60;;;25.30;42.90;;;;;;5052941;28;20033;-74
2021/09/05 11:09:19;;;;;;;9.32;6.43;;;25.40;42.40;;;;;;5052989;28;20482;-74
2021/09/05 11:12:07;;;;;;;9.95;6.38;;;25.50;42.60;;;;;;5035050;28;20036;-74
2021/09/05 11:14:36;;;;;;;8.38;6.40;;;25.50;42.60;;;;;;5034938;28;20021;-74
2021/09/05 11:17:07;;;;;;;8.45;6.28;;;25.60;41.30;;;;;;5052805;28;20025;-74
2021/09/05 11:19:39;;;;;;;13.27;7.63;;;25.60;41.10;;;;;;5034863;28;20486;-74
2021/09/05 11:22:08;;;;;;;9.80;6.53;;;25.70;40.70;;;;;;5052737;28;20533;-74
2021/09/05 11:24:34;;;;;;;8.75;5.90;;;25.70;40.20;;;;;;5055832;28;20021;-75
2021/09/05 11:27:18;;;;;;;8.13;6.15;;;25.70;41.20;;;;;;5059456;28;20100;-74
2021/09/05 11:29:44;;;;;;;8.15;5.80;;;25.80;40.40;;;;;;5059043;28;20558;-74
2021/09/05 11:32:12;;;;;;;9.07;5.85;;;25.80;39.70;;;;;;5041406;28;20037;-75
2021/09/05 11:34:50;;;;;;;6.82;5.18;;;25.90;40.00;;;;;;5059296;28;20159;-75
2021/09/05 11:37:31;;;;;;;10.07;5.35;;;25.90;40.20;;;;;;5055624;28;20032;-74
2021/09/05 11:40:05;;;;;;;8.75;5.75;;;26.00;39.90;;;;;;5057954;28;20058;-75
2021/09/05 11:42:32;;;;;;;7.72;5.07;;;26.00;39.60;;;;;;5058611;28;20060;-75
2021/09/05 11:45:06;;;;;;;9.23;6.50;;;26.00;40.10;;;;;;5057726;28;20021;-74
2021/09/05 11:47:32;;;;;;;;;;;26.10;39.20;;;;;;5041776;28;20367;-74
2021/09/05 11:49:59;;;;;;;9.60;5.60;;;26.20;41.30;;;;;;5059453;28;19938;-74
2021/09/05 11:52:30;;;;;;;7.50;5.15;;;26.20;39.10;;;;;;5059284;28;20028;-74
2021/09/05 11:55:01;;;;;;;7.38;5.70;;;26.20;39.20;;;;;;5059241;28;20147;-74
2021/09/05 11:57:27;;;;;;;6.78;5.38;;;26.20;38.70;;;;;;5059129;28;20025;-75
2021/09/05 11:59:55;;;;;;;8.90;5.78;;;26.30;38.60;;;;;;5059221;28;20025;-74
2021/09/05 12:02:31;;;;;;;5.90;4.72;;;26.30;38.00;;;;;;5041163;28;20175;-74
2021/09/05 12:04:58;;;;;;;6.55;4.72;;;26.40;38.40;;;;;;5059167;28;20386;-74
2021/09/05 12:07:25;;;;;;;7.32;5.03;;;26.40;38.90;;;;;;5059078;28;20432;-75
2021/09/05 12:10:11;;;;;;;8.40;5.53;;;26.50;36.80;;;;;;5059115;28;20033;-74
2021/09/05 12:12:39;;;;;;;7.78;5.10;;;26.50;36.70;;;;;;5059028;28;20025;-74
2021/09/05 12:15:20;;;;;;;5.28;4.40;;;26.60;36.40;;;;;;5058997;28;20171;-74
2021/09/05 12:17:51;;;;;;;7.20;4.97;;;26.60;36.40;;;;;;5058936;28;20024;-75
2021/09/05 12:20:19;;;;;;;6.45;5.18;;;26.60;35.80;;;;;;5058860;28;20021;-75
2021/09/05 12:22:49;;;;;;;7.60;5.57;;;26.70;35.00;;;;;;5058875;28;20032;-74
2021/09/05 12:25:18;;;;;;;7.07;5.22;;;26.70;34.60;;;;;;5058808;28;20493;-75
2021/09/05 12:28:18;;;;;;;6.90;5.72;;;26.80;35.90;;;;;;5040928;28;20382;-75
2021/09/05 12:30:56;;;;;;;9.50;5.13;;;26.90;36.40;;;;;;5044495;28;20045;-75
2021/09/05 12:33:28;;;;;;;6.65;4.85;;;26.90;35.00;;;;;;5058690;28;20096;-76
2021/09/05 12:36:10;;;;;;;8.70;5.78;;;27.00;35.30;;;;;;5056017;28;20017;-75
2021/09/05 12:38:37;;;;;;;5.47;4.28;;;27.00;34.40;;;;;;5055296;28;20025;-75
2021/09/05 12:41:08;;;;;;;5.32;4.18;;;27.10;36.00;;;;;;5055799;28;20415;-76
2021/09/05 12:44:07;;;;;;;6.30;4.68;;;27.10;36.10;;;;;;5055334;28;20021;-76
2021/09/05 12:46:46;;;;;;;6.20;4.13;;;27.20;35.10;;;;;;5051491;28;20521;-75
2021/09/05 12:49:15;;;;;;;9.35;5.90;;;27.30;34.10;;;;;;5037515;28;20029;-76